sensor_id;sensor_type;location;lat;lon;timestamp;P1;durP1;ratioP1;P2;durP2;ratioP2
16699;SDS011;8466;52.286;21.124;2022-07-23T00:00:53;50.40;;;47.10;;
16699;SDS011;8466;52.286;21.124;2022-07-23T00:03:24;42.85;;;40.15;;
16699;SDS011;8466;52.286;21.124;2022-07-23T00:05:53;45.20;;;42.15;;
16699;SDS011;8466;52.286;21.124;2022-07-23T00:08:21;43.97;;;41.15;;
16699;SDS011;8466;52.286;21.124;2022-07-23T00:10:50;44.88;;;41.50;;
16699;SDS011;8466;52.286;21.124;2022-07-23T00:13:19;50.10;;;46.85;;
16699;SDS011;8466;52.286;21.124;2022-07-23T00:15:47;32.55;;;30.17;;
16699;SDS011;8466;52.286;21.124;2022-07-23T00:18:16;42.55;;;39.65;;
16699;SDS011;8466;52.286;21.124;2022-07-23T00:20:46;34.63;;;32.42;;
16699;SDS011;8466;52.286;21.124;2022-07-23T00:23:15;29.05;;;27.05;;
16699;SDS011;8466;52.286;21.124;2022-07-23T00:25:46;31.20;;;28.85;;
16699;SDS011;8466;52.286;21.124;2022-07-23T00:28:16;33.28;;;31.13;;
16699;SDS011;8466;52.286;21.124;2022-07-23T00:30:46;30.48;;;28.30;;
16699;SDS011;8466;52.286;21.124;2022-07-23T00:33:15;33.88;;;31.60;;
16699;SDS011;8466;52.286;21.124;2022-07-23T00:35:43;35.33;;;32.95;;
16699;SDS011;8466;52.286;21.124;2022-07-23T00:38:13;39.53;;;37.03;;
16699;SDS011;8466;52.286;21.124;2022-07-23T00:40:42;37.83;;;35.28;;
16699;SDS011;8466;52.286;21.124;2022-07-23T00:43:11;50.72;;;47.63;;
16699;SDS011;8466;52.286;21.124;2022-07-23T00:45:39;53.88;;;50.60;;
16699;SDS011;8466;52.286;21.124;2022-07-23T00:48:09;79.07;;;74.57;;
16699;SDS011;8466;52.286;21.124;2022-07-23T00:50:37;64.32;;;60.47;;
16699;SDS011;8466;52.286;21.124;2022-07-23T00:53:08;67.03;;;63.17;;
16699;SDS011;8466;52.286;21.124;2022-07-23T00:55:37;61.67;;;57.72;;
16699;SDS011;8466;52.286;21.124;2022-07-23T00:58:06;29.95;;;27.88;;
16699;SDS011;8466;52.286;21.124;2022-07-23T01:00:36;29.42;;;27.40;;
16699;SDS011;8466;52.286;21.124;2022-07-23T01:03:05;25.08;;;23.20;;
16699;SDS011;8466;52.286;21.124;2022-07-23T01:05:33;30.17;;;27.92;;
16699;SDS011;8466;52.286;21.124;2022-07-23T01:08:02;32.83;;;30.67;;
16699;SDS011;8466;52.286;21.124;2022-07-23T01:10:34;29.55;;;27.17;;
16699;SDS011;8466;52.286;21.124;2022-07-23T01:13:04;28.65;;;26.58;;
16699;SDS011;8466;52.286;21.124;2022-07-23T01:15:35;27.63;;;25.38;;
16699;SDS011;8466;52.286;21.124;2022-07-23T01:18:05;27.70;;;25.50;;
16699;SDS011;8466;52.286;21.124;2022-07-23T01:20:35;27.55;;;25.58;;
16699;SDS011;8466;52.286;21.124;2022-07-23T01:23:05;27.40;;;25.08;;
16699;SDS011;8466;52.286;21.124;2022-07-23T01:25:51;28.75;;;26.77;;
16699;SDS011;8466;52.286;21.124;2022-07-23T01:28:20;27.80;;;25.27;;
16699;SDS011;8466;52.286;21.124;2022-07-23T01:30:50;30.27;;;27.80;;
16699;SDS011;8466;52.286;21.124;2022-07-23T01:33:18;31.60;;;29.27;;
16699;SDS011;8466;52.286;21.124;2022-07-23T01:35:47;27.55;;;25.73;;
16699;SDS011;8466;52.286;21.124;2022-07-23T01:38:17;26.55;;;24.55;;
16699;SDS011;8466;52.286;21.124;2022-07-23T01:40:46;28.30;;;26.38;;
16699;SDS011;8466;52.286;21.124;2022-07-23T01:43:20;30.40;;;28.27;;
16699;SDS011;8466;52.286;21.124;2022-07-23T01:45:52;28.10;;;26.10;;
16699;SDS011;8466;52.286;21.124;2022-07-23T01:48:21;35.05;;;32.50;;
16699;SDS011;8466;52.286;21.124;2022-07-23T01:50:50;33.38;;;31.08;;
16699;SDS011;8466;52.286;21.124;2022-07-23T01:53:20;33.47;;;31.05;;
16699;SDS011;8466;52.286;21.124;2022-07-23T01:55:49;34.30;;;32.05;;
16699;SDS011;8466;52.286;21.124;2022-07-23T01:58:17;34.78;;;32.13;;
16699;SDS011;8466;52.286;21.124;2022-07-23T02:00:46;38.42;;;36.00;;
16699;SDS011;8466;52.286;21.124;2022-07-23T02:03:15;38.08;;;35.22;;
16699;SDS011;8466;52.286;21.124;2022-07-23T02:05:43;30.65;;;28.33;;
16699;SDS011;8466;52.286;21.124;2022-07-23T02:08:12;31.98;;;29.75;;
16699;SDS011;8466;52.286;21.124;2022-07-23T02:10:42;28.35;;;26.45;;
16699;SDS011;8466;52.286;21.124;2022-07-23T02:13:12;24.85;;;23.05;;
16699;SDS011;8466;52.286;21.124;2022-07-23T02:15:44;25.45;;;23.65;;
16699;SDS011;8466;52.286;21.124;2022-07-23T02:18:13;25.23;;;23.15;;
16699;SDS011;8466;52.286;21.124;2022-07-23T02:20:42;26.85;;;24.73;;
16699;SDS011;8466;52.286;21.124;2022-07-23T02:23:11;25.73;;;23.80;;
16699;SDS011;8466;52.286;21.124;2022-07-23T02:25:39;26.70;;;24.83;;
16699;SDS011;8466;52.286;21.124;2022-07-23T02:28:10;30.25;;;27.55;;
16699;SDS011;8466;52.286;21.124;2022-07-23T02:30:38;27.55;;;25.50;;
16699;SDS011;8466;52.286;21.124;2022-07-23T02:33:07;26.27;;;24.35;;
16699;SDS011;8466;52.286;21.124;2022-07-23T02:35:35;24.08;;;22.27;;
16699;SDS011;8466;52.286;21.124;2022-07-23T02:38:04;24.90;;;23.15;;
16699;SDS011;8466;52.286;21.124;2022-07-23T02:40:33;25.83;;;24.08;;
16699;SDS011;8466;52.286;21.124;2022-07-23T02:43:02;24.33;;;22.20;;
16699;SDS011;8466;52.286;21.124;2022-07-23T02:45:32;25.65;;;23.63;;
16699;SDS011;8466;52.286;21.124;2022-07-23T02:48:00;24.70;;;22.75;;
16699;SDS011;8466;52.286;21.124;2022-07-23T02:50:29;25.58;;;23.77;;
16699;SDS011;8466;52.286;21.124;2022-07-23T02:52:58;24.67;;;22.83;;
16699;SDS011;8466;52.286;21.124;2022-07-23T02:55:26;24.48;;;22.60;;
16699;SDS011;8466;52.286;21.124;2022-07-23T02:57:55;26.23;;;24.40;;
16699;SDS011;8466;52.286;21.124;2022-07-23T03:00:24;25.75;;;23.83;;
16699;SDS011;8466;52.286;21.124;2022-07-23T03:02:54;25.27;;;23.30;;
16699;SDS011;8466;52.286;21.124;2022-07-23T03:05:22;25.17;;;23.38;;
16699;SDS011;8466;52.286;21.124;2022-07-23T03:07:51;26.45;;;24.45;;
16699;SDS011;8466;52.286;21.124;2022-07-23T03:10:20;27.63;;;25.58;;
16699;SDS011;8466;52.286;21.124;2022-07-23T03:12:48;24.50;;;22.58;;
16699;SDS011;8466;52.286;21.124;2022-07-23T03:15:17;27.00;;;24.98;;
16699;SDS011;8466;52.286;21.124;2022-07-23T03:17:46;24.48;;;22.65;;
16699;SDS011;8466;52.286;21.124;2022-07-23T03:20:16;25.48;;;23.55;;
16699;SDS011;8466;52.286;21.124;2022-07-23T03:22:45;25.85;;;23.70;;
16699;SDS011;8466;52.286;21.124;2022-07-23T03:25:13;26.85;;;24.95;;
16699;SDS011;8466;52.286;21.124;2022-07-23T03:27:42;28.55;;;26.52;;
16699;SDS011;8466;52.286;21.124;2022-07-23T03:30:12;25.98;;;24.05;;
16699;SDS011;8466;52.286;21.124;2022-07-23T03:32:40;30.65;;;28.55;;
16699;SDS011;8466;52.286;21.124;2022-07-23T03:35:09;29.17;;;26.95;;
16699;SDS011;8466;52.286;21.124;2022-07-23T03:37:39;26.83;;;24.83;;
16699;SDS011;8466;52.286;21.124;2022-07-23T03:40:08;28.73;;;26.73;;
16699;SDS011;8466;52.286;21.124;2022-07-23T03:42:37;26.35;;;24.30;;
16699;SDS011;8466;52.286;21.124;2022-07-23T03:45:09;25.17;;;23.15;;
16699;SDS011;8466;52.286;21.124;2022-07-23T03:47:38;21.83;;;20.20;;
16699;SDS011;8466;52.286;21.124;2022-07-23T03:50:07;23.85;;;22.05;;
16699;SDS011;8466;52.286;21.124;2022-07-23T03:52:36;26.17;;;24.17;;
16699;SDS011;8466;52.286;21.124;2022-07-23T03:55:06;28.13;;;26.13;;
16699;SDS011;8466;52.286;21.124;2022-07-23T03:57:35;27.17;;;25.27;;
16699;SDS011;8466;52.286;21.124;2022-07-23T04:00:05;26.80;;;24.83;;
16699;SDS011;8466;52.286;21.124;2022-07-23T04:02:35;25.90;;;23.92;;
16699;SDS011;8466;52.286;21.124;2022-07-23T04:05:05;24.80;;;22.85;;
16699;SDS011;8466;52.286;21.124;2022-07-23T04:07:34;25.35;;;23.10;;
16699;SDS011;8466;52.286;21.124;2022-07-23T04:10:03;26.10;;;24.00;;
16699;SDS011;8466;52.286;21.124;2022-07-23T04:12:34;25.92;;;23.63;;
16699;SDS011;8466;52.286;21.124;2022-07-23T04:15:04;34.42;;;31.65;;
16699;SDS011;8466;52.286;21.124;2022-07-23T04:17:34;40.33;;;37.30;;
16699;SDS011;8466;52.286;21.124;2022-07-23T04:20:03;36.08;;;33.45;;
16699;SDS011;8466;52.286;21.124;2022-07-23T04:22:33;22.73;;;20.80;;
16699;SDS011;8466;52.286;21.124;2022-07-23T04:25:01;38.42;;;35.83;;
16699;SDS011;8466;52.286;21.124;2022-07-23T04:27:30;38.97;;;36.08;;
16699;SDS011;8466;52.286;21.124;2022-07-23T04:30:01;48.95;;;45.60;;
16699;SDS011;8466;52.286;21.124;2022-07-23T04:32:30;28.38;;;26.20;;
16699;SDS011;8466;52.286;21.124;2022-07-23T04:35:00;38.45;;;35.92;;
16699;SDS011;8466;52.286;21.124;2022-07-23T04:37:29;45.47;;;42.78;;
16699;SDS011;8466;52.286;21.124;2022-07-23T04:39:58;37.75;;;35.20;;
16699;SDS011;8466;52.286;21.124;2022-07-23T04:42:27;37.45;;;35.05;;
16699;SDS011;8466;52.286;21.124;2022-07-23T04:44:56;36.72;;;34.22;;
16699;SDS011;8466;52.286;21.124;2022-07-23T04:47:26;31.80;;;29.50;;
16699;SDS011;8466;52.286;21.124;2022-07-23T04:49:54;31.40;;;29.10;;
16699;SDS011;8466;52.286;21.124;2022-07-23T04:52:23;30.35;;;28.35;;
16699;SDS011;8466;52.286;21.124;2022-07-23T04:54:52;35.38;;;32.88;;
16699;SDS011;8466;52.286;21.124;2022-07-23T04:57:21;36.50;;;34.05;;
16699;SDS011;8466;52.286;21.124;2022-07-23T04:59:52;34.53;;;32.28;;
16699;SDS011;8466;52.286;21.124;2022-07-23T05:02:20;34.85;;;32.58;;
16699;SDS011;8466;52.286;21.124;2022-07-23T05:04:51;38.85;;;36.28;;
16699;SDS011;8466;52.286;21.124;2022-07-23T05:07:19;52.28;;;49.17;;
16699;SDS011;8466;52.286;21.124;2022-07-23T05:09:48;72.38;;;67.93;;
16699;SDS011;8466;52.286;21.124;2022-07-23T05:12:17;84.00;;;79.32;;
16699;SDS011;8466;52.286;21.124;2022-07-23T05:14:45;64.15;;;60.45;;
16699;SDS011;8466;52.286;21.124;2022-07-23T05:17:17;39.70;;;37.03;;
16699;SDS011;8466;52.286;21.124;2022-07-23T05:19:47;29.50;;;27.42;;
16699;SDS011;8466;52.286;21.124;2022-07-23T05:22:28;25.90;;;24.02;;
16699;SDS011;8466;52.286;21.124;2022-07-23T05:24:56;26.83;;;24.92;;
16699;SDS011;8466;52.286;21.124;2022-07-23T05:27:25;30.45;;;28.38;;
16699;SDS011;8466;52.286;21.124;2022-07-23T05:29:54;43.17;;;40.58;;
16699;SDS011;8466;52.286;21.124;2022-07-23T05:32:23;30.95;;;28.75;;
16699;SDS011;8466;52.286;21.124;2022-07-23T05:34:53;43.60;;;40.97;;
16699;SDS011;8466;52.286;21.124;2022-07-23T05:37:22;411.25;;;383.17;;
16699;SDS011;8466;52.286;21.124;2022-07-23T05:39:52;47.00;;;44.20;;
16699;SDS011;8466;52.286;21.124;2022-07-23T05:42:21;42.28;;;39.53;;
16699;SDS011;8466;52.286;21.124;2022-07-23T05:44:49;47.25;;;44.28;;
16699;SDS011;8466;52.286;21.124;2022-07-23T05:47:18;51.47;;;47.92;;
16699;SDS011;8466;52.286;21.124;2022-07-23T05:49:49;57.92;;;54.33;;
16699;SDS011;8466;52.286;21.124;2022-07-23T05:52:22;63.47;;;59.78;;
16699;SDS011;8466;52.286;21.124;2022-07-23T05:54:52;47.25;;;44.22;;
16699;SDS011;8466;52.286;21.124;2022-07-23T05:57:21;52.65;;;49.47;;
16699;SDS011;8466;52.286;21.124;2022-07-23T05:59:51;236.20;;;221.57;;
16699;SDS011;8466;52.286;21.124;2022-07-23T06:02:25;56.47;;;52.92;;
16699;SDS011;8466;52.286;21.124;2022-07-23T06:04:53;54.42;;;51.20;;
16699;SDS011;8466;52.286;21.124;2022-07-23T06:07:22;41.83;;;39.22;;
16699;SDS011;8466;52.286;21.124;2022-07-23T06:09:52;336.30;;;314.55;;
16699;SDS011;8466;52.286;21.124;2022-07-23T06:12:21;516.50;;;477.55;;
16699;SDS011;8466;52.286;21.124;2022-07-23T06:14:51;48.75;;;45.67;;
16699;SDS011;8466;52.286;21.124;2022-07-23T06:17:19;33.85;;;31.65;;
16699;SDS011;8466;52.286;21.124;2022-07-23T06:19:51;30.05;;;27.88;;
16699;SDS011;8466;52.286;21.124;2022-07-23T06:22:21;302.15;;;283.05;;
16699;SDS011;8466;52.286;21.124;2022-07-23T06:24:50;37.13;;;34.67;;
16699;SDS011;8466;52.286;21.124;2022-07-23T06:27:20;32.97;;;30.98;;
16699;SDS011;8466;52.286;21.124;2022-07-23T06:29:52;47.33;;;44.38;;
16699;SDS011;8466;52.286;21.124;2022-07-23T06:32:21;37.63;;;35.33;;
16699;SDS011;8466;52.286;21.124;2022-07-23T06:34:50;431.58;;;400.58;;
16699;SDS011;8466;52.286;21.124;2022-07-23T06:37:18;41.67;;;39.13;;
16699;SDS011;8466;52.286;21.124;2022-07-23T06:39:47;49.42;;;46.15;;
16699;SDS011;8466;52.286;21.124;2022-07-23T06:42:18;48.10;;;45.20;;
16699;SDS011;8466;52.286;21.124;2022-07-23T06:44:46;46.30;;;42.83;;
16699;SDS011;8466;52.286;21.124;2022-07-23T06:47:15;51.97;;;48.38;;
16699;SDS011;8466;52.286;21.124;2022-07-23T06:49:44;42.88;;;40.13;;
16699;SDS011;8466;52.286;21.124;2022-07-23T06:52:12;39.22;;;36.72;;
16699;SDS011;8466;52.286;21.124;2022-07-23T06:54:41;40.33;;;37.97;;
16699;SDS011;8466;52.286;21.124;2022-07-23T06:57:10;39.90;;;37.25;;
16699;SDS011;8466;52.286;21.124;2022-07-23T06:59:40;38.88;;;36.00;;
16699;SDS011;8466;52.286;21.124;2022-07-23T07:02:09;39.75;;;37.17;;
16699;SDS011;8466;52.286;21.124;2022-07-23T07:04:38;34.97;;;32.83;;
16699;SDS011;8466;52.286;21.124;2022-07-23T07:07:06;35.40;;;33.28;;
16699;SDS011;8466;52.286;21.124;2022-07-23T07:09:35;37.28;;;34.88;;
16699;SDS011;8466;52.286;21.124;2022-07-23T07:12:04;38.40;;;36.05;;
16699;SDS011;8466;52.286;21.124;2022-07-23T07:14:33;44.83;;;41.65;;
16699;SDS011;8466;52.286;21.124;2022-07-23T07:17:04;45.70;;;42.78;;
16699;SDS011;8466;52.286;21.124;2022-07-23T07:19:33;49.97;;;46.97;;
16699;SDS011;8466;52.286;21.124;2022-07-23T07:22:01;44.03;;;41.42;;
16699;SDS011;8466;52.286;21.124;2022-07-23T07:24:30;50.70;;;47.67;;
16699;SDS011;8466;52.286;21.124;2022-07-23T07:27:03;61.90;;;58.10;;
16699;SDS011;8466;52.286;21.124;2022-07-23T07:29:32;66.25;;;62.28;;
16699;SDS011;8466;52.286;21.124;2022-07-23T07:32:01;67.30;;;63.20;;
16699;SDS011;8466;52.286;21.124;2022-07-23T07:34:32;71.00;;;66.93;;
16699;SDS011;8466;52.286;21.124;2022-07-23T07:37:01;65.30;;;61.35;;
16699;SDS011;8466;52.286;21.124;2022-07-23T07:39:29;61.83;;;58.03;;
16699;SDS011;8466;52.286;21.124;2022-07-23T07:41:58;64.78;;;60.95;;
16699;SDS011;8466;52.286;21.124;2022-07-23T07:44:27;69.80;;;65.85;;
16699;SDS011;8466;52.286;21.124;2022-07-23T07:46:55;65.88;;;62.13;;
16699;SDS011;8466;52.286;21.124;2022-07-23T07:49:24;62.30;;;58.63;;
16699;SDS011;8466;52.286;21.124;2022-07-23T07:52:01;61.75;;;58.35;;
16699;SDS011;8466;52.286;21.124;2022-07-23T07:54:30;67.18;;;63.35;;
16699;SDS011;8466;52.286;21.124;2022-07-23T07:57:02;67.72;;;64.03;;
16699;SDS011;8466;52.286;21.124;2022-07-23T07:59:33;59.92;;;56.55;;
16699;SDS011;8466;52.286;21.124;2022-07-23T08:02:03;61.83;;;58.13;;
16699;SDS011;8466;52.286;21.124;2022-07-23T08:04:32;58.25;;;54.47;;
16699;SDS011;8466;52.286;21.124;2022-07-23T08:07:03;66.95;;;63.00;;
16699;SDS011;8466;52.286;21.124;2022-07-23T08:09:32;58.95;;;55.47;;
16699;SDS011;8466;52.286;21.124;2022-07-23T08:12:01;64.50;;;60.95;;
16699;SDS011;8466;52.286;21.124;2022-07-23T08:14:30;70.10;;;66.00;;
16699;SDS011;8466;52.286;21.124;2022-07-23T08:16:58;69.55;;;65.57;;
16699;SDS011;8466;52.286;21.124;2022-07-23T08:19:40;183.57;;;172.43;;
16699;SDS011;8466;52.286;21.124;2022-07-23T08:22:10;97.18;;;91.47;;
16699;SDS011;8466;52.286;21.124;2022-07-23T08:24:39;68.43;;;64.47;;
16699;SDS011;8466;52.286;21.124;2022-07-23T08:27:08;75.43;;;71.18;;
16699;SDS011;8466;52.286;21.124;2022-07-23T08:29:36;78.90;;;74.40;;
16699;SDS011;8466;52.286;21.124;2022-07-23T08:32:05;71.70;;;67.57;;
16699;SDS011;8466;52.286;21.124;2022-07-23T08:34:55;70.75;;;66.57;;
16699;SDS011;8466;52.286;21.124;2022-07-23T08:37:25;75.05;;;70.78;;
16699;SDS011;8466;52.286;21.124;2022-07-23T08:39:54;79.63;;;74.95;;
16699;SDS011;8466;52.286;21.124;2022-07-23T08:42:23;84.72;;;79.68;;
16699;SDS011;8466;52.286;21.124;2022-07-23T08:44:52;69.03;;;64.85;;
16699;SDS011;8466;52.286;21.124;2022-07-23T08:47:21;76.57;;;71.82;;
16699;SDS011;8466;52.286;21.124;2022-07-23T08:49:51;59.25;;;55.72;;
16699;SDS011;8466;52.286;21.124;2022-07-23T08:52:20;66.32;;;62.55;;
16699;SDS011;8466;52.286;21.124;2022-07-23T08:54:54;69.20;;;65.15;;
16699;SDS011;8466;52.286;21.124;2022-07-23T08:57:24;67.88;;;63.88;;
16699;SDS011;8466;52.286;21.124;2022-07-23T08:59:53;72.40;;;68.20;;
16699;SDS011;8466;52.286;21.124;2022-07-23T09:02:22;51.95;;;48.70;;
16699;SDS011;8466;52.286;21.124;2022-07-23T09:04:51;66.20;;;62.42;;
16699;SDS011;8466;52.286;21.124;2022-07-23T09:07:19;60.30;;;56.63;;
16699;SDS011;8466;52.286;21.124;2022-07-23T09:09:53;70.43;;;65.80;;
16699;SDS011;8466;52.286;21.124;2022-07-23T09:12:34;65.93;;;62.00;;
16699;SDS011;8466;52.286;21.124;2022-07-23T09:15:07;65.13;;;61.40;;
16699;SDS011;8466;52.286;21.124;2022-07-23T09:17:37;58.58;;;54.88;;
16699;SDS011;8466;52.286;21.124;2022-07-23T09:20:11;65.88;;;61.90;;
16699;SDS011;8466;52.286;21.124;2022-07-23T09:22:43;61.63;;;57.92;;
16699;SDS011;8466;52.286;21.124;2022-07-23T09:25:15;55.53;;;52.20;;
16699;SDS011;8466;52.286;21.124;2022-07-23T09:27:49;57.92;;;54.03;;
16699;SDS011;8466;52.286;21.124;2022-07-23T09:30:21;50.90;;;47.90;;
16699;SDS011;8466;52.286;21.124;2022-07-23T09:33:04;62.55;;;58.85;;
16699;SDS011;8466;52.286;21.124;2022-07-23T09:35:47;68.80;;;64.57;;
16699;SDS011;8466;52.286;21.124;2022-07-23T09:38:20;72.43;;;67.88;;
16699;SDS011;8466;52.286;21.124;2022-07-23T09:43:46;70.07;;;65.45;;
16699;SDS011;8466;52.286;21.124;2022-07-23T09:46:22;80.38;;;75.18;;
16699;SDS011;8466;52.286;21.124;2022-07-23T09:48:54;59.95;;;56.08;;
16699;SDS011;8466;52.286;21.124;2022-07-23T09:51:29;59.70;;;56.03;;
16699;SDS011;8466;52.286;21.124;2022-07-23T09:54:03;71.05;;;66.65;;
16699;SDS011;8466;52.286;21.124;2022-07-23T09:56:34;72.50;;;68.05;;
16699;SDS011;8466;52.286;21.124;2022-07-23T09:59:06;73.15;;;68.38;;
16699;SDS011;8466;52.286;21.124;2022-07-23T10:01:38;65.82;;;61.72;;
16699;SDS011;8466;52.286;21.124;2022-07-23T10:04:08;69.38;;;65.03;;
16699;SDS011;8466;52.286;21.124;2022-07-23T10:06:42;69.28;;;65.20;;
16699;SDS011;8466;52.286;21.124;2022-07-23T10:09:15;77.25;;;72.35;;
16699;SDS011;8466;52.286;21.124;2022-07-23T10:11:49;85.85;;;80.50;;
16699;SDS011;8466;52.286;21.124;2022-07-23T10:14:25;61.85;;;57.85;;
16699;SDS011;8466;52.286;21.124;2022-07-23T10:17:00;80.22;;;75.38;;
16699;SDS011;8466;52.286;21.124;2022-07-23T10:19:33;75.05;;;70.47;;
16699;SDS011;8466;52.286;21.124;2022-07-23T10:22:07;71.35;;;66.82;;
16699;SDS011;8466;52.286;21.124;2022-07-23T10:24:47;66.10;;;61.95;;
16699;SDS011;8466;52.286;21.124;2022-07-23T10:27:37;58.03;;;54.42;;
16699;SDS011;8466;52.286;21.124;2022-07-23T10:30:18;71.82;;;67.35;;
16699;SDS011;8466;52.286;21.124;2022-07-23T10:33:09;64.55;;;60.58;;
16699;SDS011;8466;52.286;21.124;2022-07-23T10:35:53;69.07;;;64.63;;
16699;SDS011;8466;52.286;21.124;2022-07-23T10:38:30;74.63;;;69.97;;
16699;SDS011;8466;52.286;21.124;2022-07-23T10:41:05;71.18;;;66.57;;
16699;SDS011;8466;52.286;21.124;2022-07-23T10:43:39;79.35;;;74.65;;
16699;SDS011;8466;52.286;21.124;2022-07-23T10:46:23;74.63;;;69.78;;
16699;SDS011;8466;52.286;21.124;2022-07-23T10:52:20;78.25;;;73.63;;
16699;SDS011;8466;52.286;21.124;2022-07-23T10:54:54;71.93;;;67.72;;
16699;SDS011;8466;52.286;21.124;2022-07-23T10:57:24;77.38;;;72.75;;
16699;SDS011;8466;52.286;21.124;2022-07-23T11:00:16;89.38;;;84.10;;
16699;SDS011;8466;52.286;21.124;2022-07-23T11:02:52;79.88;;;75.25;;
16699;SDS011;8466;52.286;21.124;2022-07-23T11:05:26;99.75;;;93.75;;
16699;SDS011;8466;52.286;21.124;2022-07-23T11:11:08;80.07;;;75.43;;
16699;SDS011;8466;52.286;21.124;2022-07-23T11:13:44;83.25;;;77.90;;
16699;SDS011;8466;52.286;21.124;2022-07-23T11:16:20;236.07;;;221.57;;
16699;SDS011;8466;52.286;21.124;2022-07-23T11:19:03;148.93;;;139.93;;
16699;SDS011;8466;52.286;21.124;2022-07-23T11:21:44;123.40;;;115.90;;
16699;SDS011;8466;52.286;21.124;2022-07-23T11:24:27;103.72;;;97.15;;
16699;SDS011;8466;52.286;21.124;2022-07-23T11:27:02;112.75;;;105.70;;
16699;SDS011;8466;52.286;21.124;2022-07-23T11:29:53;103.38;;;97.28;;
16699;SDS011;8466;52.286;21.124;2022-07-23T11:32:28;116.50;;;109.22;;
16699;SDS011;8466;52.286;21.124;2022-07-23T11:38:06;104.65;;;98.35;;
16699;SDS011;8466;52.286;21.124;2022-07-23T11:40:43;110.40;;;103.75;;
16699;SDS011;8466;52.286;21.124;2022-07-23T11:43:15;114.78;;;108.20;;
16699;SDS011;8466;52.286;21.124;2022-07-23T11:45:48;108.03;;;101.40;;
16699;SDS011;8466;52.286;21.124;2022-07-23T11:48:25;107.60;;;100.97;;
16699;SDS011;8466;52.286;21.124;2022-07-23T11:51:08;144.38;;;135.65;;
16699;SDS011;8466;52.286;21.124;2022-07-23T11:53:41;144.65;;;135.93;;
16699;SDS011;8466;52.286;21.124;2022-07-23T11:56:17;126.72;;;119.30;;
16699;SDS011;8466;52.286;21.124;2022-07-23T11:58:54;130.20;;;122.50;;
16699;SDS011;8466;52.286;21.124;2022-07-23T12:01:28;127.82;;;120.15;;
16699;SDS011;8466;52.286;21.124;2022-07-23T12:04:03;127.20;;;119.65;;
16699;SDS011;8466;52.286;21.124;2022-07-23T12:06:41;141.20;;;132.60;;
16699;SDS011;8466;52.286;21.124;2022-07-23T12:09:17;133.52;;;125.50;;
16699;SDS011;8466;52.286;21.124;2022-07-23T12:12:00;139.88;;;131.32;;
16699;SDS011;8466;52.286;21.124;2022-07-23T12:14:35;141.80;;;133.38;;
16699;SDS011;8466;52.286;21.124;2022-07-23T12:17:27;127.00;;;119.10;;
16699;SDS011;8466;52.286;21.124;2022-07-23T12:20:03;135.05;;;126.70;;
16699;SDS011;8466;52.286;21.124;2022-07-23T12:22:43;135.25;;;127.03;;
16699;SDS011;8466;52.286;21.124;2022-07-23T12:25:18;147.25;;;138.43;;
16699;SDS011;8466;52.286;21.124;2022-07-23T12:28:00;127.82;;;120.05;;
16699;SDS011;8466;52.286;21.124;2022-07-23T12:30:38;136.90;;;128.80;;
16699;SDS011;8466;52.286;21.124;2022-07-23T12:33:15;134.57;;;126.43;;
16699;SDS011;8466;52.286;21.124;2022-07-23T12:35:50;144.50;;;135.90;;
16699;SDS011;8466;52.286;21.124;2022-07-23T12:38:21;156.15;;;146.93;;
16699;SDS011;8466;52.286;21.124;2022-07-23T12:40:53;149.20;;;140.02;;
16699;SDS011;8466;52.286;21.124;2022-07-23T12:43:24;137.55;;;129.02;;
16699;SDS011;8466;52.286;21.124;2022-07-23T12:45:56;134.75;;;126.53;;
16699;SDS011;8466;52.286;21.124;2022-07-23T12:48:40;506.63;;;466.67;;
16699;SDS011;8466;52.286;21.124;2022-07-23T12:51:23;207.02;;;194.25;;
16699;SDS011;8466;52.286;21.124;2022-07-23T12:53:56;185.13;;;173.80;;
16699;SDS011;8466;52.286;21.124;2022-07-23T12:56:28;159.68;;;150.13;;
16699;SDS011;8466;52.286;21.124;2022-07-23T12:58:59;163.13;;;153.23;;
16699;SDS011;8466;52.286;21.124;2022-07-23T13:01:35;173.40;;;162.75;;
16699;SDS011;8466;52.286;21.124;2022-07-23T13:04:05;168.82;;;158.27;;
16699;SDS011;8466;52.286;21.124;2022-07-23T13:06:40;162.13;;;152.15;;
16699;SDS011;8466;52.286;21.124;2022-07-23T13:09:12;170.52;;;159.95;;
16699;SDS011;8466;52.286;21.124;2022-07-23T13:11:43;170.07;;;159.60;;
16699;SDS011;8466;52.286;21.124;2022-07-23T13:14:13;165.52;;;155.00;;
16699;SDS011;8466;52.286;21.124;2022-07-23T13:16:42;162.52;;;152.68;;
16699;SDS011;8466;52.286;21.124;2022-07-23T13:19:14;153.73;;;144.27;;
16699;SDS011;8466;52.286;21.124;2022-07-23T13:21:44;171.45;;;160.80;;
16699;SDS011;8466;52.286;21.124;2022-07-23T13:24:15;152.73;;;143.68;;
16699;SDS011;8466;52.286;21.124;2022-07-23T13:26:45;165.38;;;155.75;;
16699;SDS011;8466;52.286;21.124;2022-07-23T13:29:16;161.20;;;151.43;;
16699;SDS011;8466;52.286;21.124;2022-07-23T13:31:45;181.00;;;170.13;;
16699;SDS011;8466;52.286;21.124;2022-07-23T13:34:16;179.98;;;168.98;;
16699;SDS011;8466;52.286;21.124;2022-07-23T13:36:45;175.05;;;164.25;;
16699;SDS011;8466;52.286;21.124;2022-07-23T13:39:15;188.50;;;176.90;;
16699;SDS011;8466;52.286;21.124;2022-07-23T13:41:44;203.70;;;190.73;;
16699;SDS011;8466;52.286;21.124;2022-07-23T13:44:16;168.73;;;158.07;;
16699;SDS011;8466;52.286;21.124;2022-07-23T13:46:48;165.13;;;155.20;;
16699;SDS011;8466;52.286;21.124;2022-07-23T13:49:17;198.20;;;186.20;;
16699;SDS011;8466;52.286;21.124;2022-07-23T13:51:47;196.82;;;184.55;;
16699;SDS011;8466;52.286;21.124;2022-07-23T13:54:18;203.10;;;190.85;;
16699;SDS011;8466;52.286;21.124;2022-07-23T13:56:48;205.68;;;193.52;;
16699;SDS011;8466;52.286;21.124;2022-07-23T13:59:16;219.52;;;205.85;;
16699;SDS011;8466;52.286;21.124;2022-07-23T14:01:45;219.13;;;206.02;;
16699;SDS011;8466;52.286;21.124;2022-07-23T14:04:34;206.75;;;194.15;;
16699;SDS011;8466;52.286;21.124;2022-07-23T14:07:03;205.60;;;192.68;;
16699;SDS011;8466;52.286;21.124;2022-07-23T14:09:33;227.18;;;212.77;;
16699;SDS011;8466;52.286;21.124;2022-07-23T14:12:04;235.90;;;221.15;;
16699;SDS011;8466;52.286;21.124;2022-07-23T14:14:33;199.70;;;187.82;;
16699;SDS011;8466;52.286;21.124;2022-07-23T14:17:03;219.80;;;206.15;;
16699;SDS011;8466;52.286;21.124;2022-07-23T14:19:36;227.05;;;213.25;;
16699;SDS011;8466;52.286;21.124;2022-07-23T14:22:05;468.45;;;430.25;;
16699;SDS011;8466;52.286;21.124;2022-07-23T14:24:35;230.02;;;216.07;;
16699;SDS011;8466;52.286;21.124;2022-07-23T14:27:04;201.35;;;188.82;;
16699;SDS011;8466;52.286;21.124;2022-07-23T14:29:33;201.25;;;189.20;;
16699;SDS011;8466;52.286;21.124;2022-07-23T14:32:03;183.73;;;172.90;;
16699;SDS011;8466;52.286;21.124;2022-07-23T14:34:32;173.45;;;162.80;;
16699;SDS011;8466;52.286;21.124;2022-07-23T14:37:03;152.70;;;142.77;;
16699;SDS011;8466;52.286;21.124;2022-07-23T14:39:32;149.48;;;140.05;;
16699;SDS011;8466;52.286;21.124;2022-07-23T14:42:03;141.68;;;132.98;;
16699;SDS011;8466;52.286;21.124;2022-07-23T14:44:32;152.75;;;142.77;;
16699;SDS011;8466;52.286;21.124;2022-07-23T14:47:02;127.88;;;119.95;;
16699;SDS011;8466;52.286;21.124;2022-07-23T14:49:32;101.57;;;95.45;;
16699;SDS011;8466;52.286;21.124;2022-07-23T14:52:02;104.43;;;98.03;;